Time;durP1;ratioP1;P1;durP2;ratioP2;P2;SDS_P1;SDS_P2;PMS_P1;PMS_P2;Temp;Humidity;BMP_temperature;BMP_pressure;BME280_temperature;BME280_humidity;BME280_pressure;Samples;Min_cycle;Max_cycle;Signal;HPM_P1;HPM_P2
2022/08/29 00:01:59;;;;;;;2.25;1.58;;;14.50;99.90;;;;;;5042464;28;20099;-78
2022/08/29 00:04:25;;;;;;;5.25;1.80;;;14.50;99.90;;;;;;5028937;28;20049;-78
2022/08/29 00:06:50;;;;;;;7.80;1.92;;;14.50;99.90;;;;;;5042777;28;20396;-78
2022/08/29 00:09:16;;;;;;;7.43;1.90;;;14.60;99.90;;;;;;5014122;28;20491;-78
2022/08/29 00:11:42;;;;;;;5.95;2.20;;;14.60;99.90;;;;;;5028174;28;20120;-78
2022/08/29 00:14:07;;;;;;;8.07;2.10;;;14.60;99.90;;;;;;5029175;28;20364;-77
2022/08/29 00:16:34;;;;;;;7.38;1.92;;;14.60;99.90;;;;;;5025360;28;20119;-78
2022/08/29 00:18:59;;;;;;;6.80;2.10;;;14.60;99.90;;;;;;5029379;28;20036;-78
2022/08/29 00:21:25;;;;;;;3.42;1.75;;;14.70;99.90;;;;;;5030298;28;20123;-78
2022/08/29 00:23:51;;;;;;;7.47;2.45;;;14.70;99.90;;;;;;5026589;28;20116;-78
2022/08/29 00:26:17;;;;;;;6.82;1.95;;;14.70;99.90;;;;;;5027102;28;20041;-78
2022/08/29 00:28:42;;;;;;;5.63;1.88;;;14.70;99.90;;;;;;5012122;28;20052;-78
2022/08/29 00:31:08;;;;;;;5.82;2.28;;;14.70;99.90;;;;;;5026736;28;20091;-78
2022/08/29 00:33:34;;;;;;;7.30;2.10;;;14.80;99.90;;;;;;5030220;28;20074;-78
2022/08/29 00:35:59;;;;;;;7.45;2.60;;;14.70;99.90;;;;;;5030113;28;20064;-77
2022/08/29 00:38:25;;;;;;;6.95;2.33;;;14.60;99.90;;;;;;5028020;28;20033;-78
2022/08/29 00:40:53;;;;;;;8.48;2.35;;;14.60;99.90;;;;;;5007362;28;20197;-78
2022/08/29 00:43:31;;;;;;;7.30;2.20;;;14.70;99.90;;;;;;5028584;28;20412;-78
2022/08/29 00:46:15;;;;;;;10.13;2.65;;;14.70;99.90;;;;;;5030244;28;20124;-78
2022/08/29 00:48:43;;;;;;;5.63;2.13;;;14.70;99.90;;;;;;5044154;28;20048;-78
2022/08/29 00:51:15;;;;;;;7.53;2.67;;;14.60;99.90;;;;;;5013190;28;20141;-78
2022/08/29 00:53:46;;;;;;;6.13;2.40;;;14.50;99.90;;;;;;5027639;28;20037;-78
2022/08/29 00:56:14;;;;;;;5.65;2.60;;;14.60;99.90;;;;;;5025028;28;20139;-78
2022/08/29 00:58:45;;;;;;;7.60;2.35;;;14.60;99.90;;;;;;5010631;28;20040;-78
2022/08/29 01:01:11;;;;;;;6.28;2.45;;;14.60;99.90;;;;;;5028652;28;20449;-78
2022/08/29 01:03:38;;;;;;;6.55;2.80;;;14.70;99.90;;;;;;5044298;28;20067;-78
2022/08/29 01:06:05;;;;;;;5.47;2.50;;;14.70;99.90;;;;;;5028296;28;20029;-77
2022/08/29 01:08:31;;;;;;;6.00;2.58;;;14.70;99.90;;;;;;5029011;28;20041;-78
2022/08/29 01:13:45;;;;;;;9.02;2.28;;;14.70;99.90;;;;;;5043021;28;20102;-78
2022/08/29 01:16:13;;;;;;;7.85;2.60;;;14.70;99.90;;;;;;5026702;28;20037;-77
2022/08/29 01:18:44;;;;;;;6.38;2.40;;;14.70;99.90;;;;;;5029510;28;20515;-79
2022/08/29 01:21:28;;;;;;;6.53;1.98;;;14.70;99.90;;;;;;5008678;28;20048;-78
2022/08/29 01:24:13;;;;;;;5.88;2.47;;;14.80;99.90;;;;;;5026024;28;20044;-78
2022/08/29 01:26:40;;;;;;;6.82;2.35;;;14.70;99.90;;;;;;5027690;28;20446;-78
2022/08/29 01:29:06;;;;;;;5.90;2.47;;;14.80;99.90;;;;;;5048099;28;20744;-78
2022/08/29 01:31:47;;;;;;;7.68;2.70;;;14.70;99.90;;;;;;5025559;28;20044;-78
2022/08/29 01:34:15;;;;;;;7.82;2.30;;;14.80;99.90;;;;;;5027594;28;20077;-78
2022/08/29 01:36:54;;;;;;;4.70;2.50;;;14.80;99.90;;;;;;5023701;28;20039;-78
2022/08/29 01:39:25;;;;;;;8.15;2.47;;;14.80;99.90;;;;;;5012131;28;20087;-78
2022/08/29 01:41:51;;;;;;;7.07;3.45;;;14.80;99.90;;;;;;5024811;28;20076;-78
2022/08/29 01:44:19;;;;;;;7.82;2.70;;;14.80;99.90;;;;;;5013337;28;20052;-78
2022/08/29 01:46:47;;;;;;;7.63;2.50;;;14.90;99.90;;;;;;5029472;28;20426;-78
2022/08/29 01:49:16;;;;;;;10.07;3.05;;;14.90;99.90;;;;;;5015617;28;20037;-78
2022/08/29 01:51:41;;;;;;;7.22;3.00;;;14.90;99.90;;;;;;5028947;28;20057;-78
2022/08/29 01:54:09;;;;;;;7.30;2.67;;;14.90;99.90;;;;;;5020834;28;20534;-78
2022/08/29 01:56:38;;;;;;;6.97;2.88;;;14.90;99.90;;;;;;5025168;28;20041;-78
2022/08/29 01:59:07;;;;;;;5.65;2.60;;;14.90;99.90;;;;;;5044645;28;20033;-78
2022/08/29 02:01:37;;;;;;;6.68;2.90;;;14.90;99.90;;;;;;5025188;28;20074;-78
2022/08/29 02:04:03;;;;;;;6.53;2.78;;;14.90;99.90;;;;;;5026574;28;20555;-78
2022/08/29 02:06:29;;;;;;;6.63;3.35;;;14.90;99.90;;;;;;5041415;28;20033;-78
2022/08/29 02:08:55;;;;;;;6.47;2.88;;;14.90;99.90;;;;;;5027867;28;20051;-78
2022/08/29 02:11:21;;;;;;;10.70;3.40;;;14.90;99.90;;;;;;5028480;28;20060;-78
2022/08/29 02:13:52;;;;;;;8.85;2.95;;;14.90;99.90;;;;;;5027321;28;20119;-78
2022/08/29 02:16:18;;;;;;;5.25;2.65;;;14.90;99.90;;;;;;5025722;28;20111;-78
2022/08/29 02:18:44;;;;;;;9.45;2.65;;;14.90;99.90;;;;;;5026860;28;20122;-78
2022/08/29 02:21:12;;;;;;;6.90;2.95;;;14.90;99.90;;;;;;5026195;28;20056;-78
2022/08/29 02:23:39;;;;;;;8.77;2.60;;;14.90;99.90;;;;;;5026295;28;20483;-78
2022/08/29 02:26:06;;;;;;;10.35;2.75;;;14.90;99.90;;;;;;5030156;28;20055;-78
2022/08/29 02:28:33;;;;;;;5.97;2.58;;;14.90;99.90;;;;;;5030378;28;20071;-78
2022/08/29 02:30:58;;;;;;;6.25;2.63;;;14.90;99.90;;;;;;5010450;28;20102;-78
2022/08/29 02:33:25;;;;;;;9.77;2.50;;;14.90;99.90;;;;;;5026409;28;20414;-78
2022/08/29 02:35:52;;;;;;;6.90;3.10;;;14.90;99.90;;;;;;5043037;28;20052;-78
2022/08/29 02:38:18;;;;;;;6.70;3.05;;;14.90;99.90;;;;;;5024723;28;20803;-78
2022/08/29 02:40:44;;;;;;;5.63;2.72;;;15.00;99.90;;;;;;5025762;28;20050;-78
2022/08/29 02:43:11;;;;;;;8.25;2.83;;;14.90;99.90;;;;;;5046050;28;20079;-78
2022/08/29 02:45:39;;;;;;;5.25;2.35;;;14.90;99.90;;;;;;5027811;28;20044;-79
2022/08/29 02:48:05;;;;;;;7.20;3.28;;;14.90;99.90;;;;;;5026782;28;20789;-78
2022/08/29 02:50:30;;;;;;;7.72;3.00;;;14.90;99.90;;;;;;5026866;28;20045;-78
2022/08/29 02:52:56;;;;;;;6.63;2.80;;;14.80;99.90;;;;;;5027197;28;20348;-78
2022/08/29 02:55:22;;;;;;;6.28;2.75;;;14.90;99.90;;;;;;5011776;28;20099;-78
2022/08/29 02:57:48;;;;;;;8.65;2.97;;;14.90;99.90;;;;;;5026525;28;21851;-79
2022/08/29 03:00:21;;;;;;;5.55;2.72;;;14.90;99.90;;;;;;5025837;28;20045;-78
2022/08/29 03:02:48;;;;;;;6.40;2.65;;;14.90;99.90;;;;;;5010634;28;20036;-78
2022/08/29 03:05:15;;;;;;;7.28;3.22;;;14.90;99.90;;;;;;5027143;28;20075;-78
2022/08/29 03:07:41;;;;;;;5.95;2.50;;;15.00;99.90;;;;;;5026601;28;20033;-78
2022/08/29 03:10:07;;;;;;;5.55;2.60;;;14.90;99.90;;;;;;5025459;28;20045;-77
2022/08/29 03:12:34;;;;;;;7.50;2.40;;;14.90;99.90;;;;;;5027426;28;20045;-77
2022/08/29 03:15:00;;;;;;;8.23;2.45;;;14.90;99.90;;;;;;5032909;28;20048;-77
2022/08/29 03:17:25;;;;;;;5.30;2.35;;;14.90;99.90;;;;;;5029635;28;20045;-77
2022/08/29 03:19:51;;;;;;;9.55;2.75;;;14.90;99.90;;;;;;5029728;28;20036;-77
2022/08/29 03:22:17;;;;;;;9.80;3.10;;;14.90;99.90;;;;;;5030543;28;20116;-77
2022/08/29 03:24:43;;;;;;;10.07;3.00;;;15.00;99.90;;;;;;5031232;28;20128;-77
2022/08/29 03:27:08;;;;;;;11.75;3.53;;;14.90;99.90;;;;;;5028393;28;20045;-77
2022/08/29 03:29:34;;;;;;;5.20;2.75;;;14.90;99.90;;;;;;5013784;28;20055;-78
2022/08/29 03:32:00;;;;;;;7.72;2.63;;;15.00;99.90;;;;;;5030431;28;20041;-77
2022/08/29 03:34:29;;;;;;;8.35;3.25;;;14.90;99.90;;;;;;5030862;28;20032;-77
2022/08/29 03:36:55;;;;;;;5.05;2.65;;;14.90;99.90;;;;;;5029853;28;20056;-78
2022/08/29 03:39:21;;;;;;;7.15;2.97;;;14.90;99.90;;;;;;5029738;28;20044;-78
2022/08/29 03:41:46;;;;;;;6.40;2.75;;;14.90;99.90;;;;;;5029518;28;20491;-78
2022/08/29 03:44:12;;;;;;;7.18;3.60;;;14.80;99.90;;;;;;5028727;28;20066;-78
2022/08/29 03:46:38;;;;;;;7.07;2.45;;;14.80;99.90;;;;;;5030868;28;20045;-78
2022/08/29 03:49:06;;;;;;;4.95;2.80;;;14.90;99.90;;;;;;5047635;28;20093;-78
2022/08/29 03:51:35;;;;;;;7.85;2.75;;;14.90;99.90;;;;;;5028738;28;20067;-78
2022/08/29 03:54:01;;;;;;;5.88;2.80;;;14.90;99.90;;;;;;5014784;28;20044;-78
2022/08/29 03:56:27;;;;;;;4.82;2.50;;;14.90;99.90;;;;;;5043663;28;20029;-79
2022/08/29 03:58:54;;;;;;;7.03;3.15;;;14.90;99.90;;;;;;5029896;28;20033;-78
2022/08/29 04:01:23;;;;;;;8.73;2.80;;;14.80;99.90;;;;;;5026368;28;20492;-78
2022/08/29 04:03:49;;;;;;;10.02;3.13;;;14.80;99.90;;;;;;5018544;28;20139;-78
2022/08/29 04:06:15;;;;;;;9.95;2.92;;;14.80;99.90;;;;;;5029083;28;20048;-78
2022/08/29 04:08:42;;;;;;;9.38;3.45;;;14.80;99.90;;;;;;5028303;28;20041;-78
2022/08/29 04:11:13;;;;;;;6.60;3.03;;;14.80;99.90;;;;;;5028081;28;20033;-78
2022/08/29 04:13:38;;;;;;;8.63;3.30;;;14.70;99.90;;;;;;5028781;28;20041;-78
2022/08/29 04:16:12;;;;;;;6.22;2.65;;;14.70;99.90;;;;;;5028661;28;20052;-78
2022/08/29 04:18:38;;;;;;;7.10;3.05;;;14.70;99.90;;;;;;5028799;28;20589;-78
2022/08/29 04:21:05;;;;;;;9.48;2.75;;;14.70;99.90;;;;;;5045507;28;20041;-78
2022/08/29 04:23:32;;;;;;;10.38;3.53;;;14.60;99.90;;;;;;5028373;28;20044;-78
2022/08/29 04:25:58;;;;;;;7.50;3.45;;;14.70;99.90;;;;;;5029805;28;20040;-78
2022/08/29 04:28:24;;;;;;;6.57;2.90;;;14.70;99.90;;;;;;5033408;28;20036;-78
2022/08/29 04:30:51;;;;;;;6.32;2.85;;;14.60;99.90;;;;;;5040951;28;20050;-78
2022/08/29 04:33:22;;;;;;;11.90;3.78;;;14.50;99.90;;;;;;5012253;28;20048;-78
2022/08/29 04:35:48;;;;;;;7.82;2.70;;;14.50;99.90;;;;;;5027278;28;20037;-78
2022/08/29 04:38:14;;;;;;;7.50;3.25;;;14.50;99.90;;;;;;5028522;28;20453;-78
2022/08/29 04:40:41;;;;;;;9.68;3.30;;;14.50;99.90;;;;;;5040565;28;20041;-78
2022/08/29 04:43:07;;;;;;;8.27;3.03;;;14.50;99.90;;;;;;5012214;28;20033;-78
2022/08/29 04:45:34;;;;;;;7.85;2.88;;;14.40;99.90;;;;;;5028368;28;20471;-78
2022/08/29 04:48:01;;;;;;;6.85;2.83;;;14.40;99.90;;;;;;5030950;28;20040;-77
2022/08/29 04:50:28;;;;;;;8.48;3.35;;;14.30;99.90;;;;;;5033756;28;20491;-78
2022/08/29 04:52:54;;;;;;;7.22;2.83;;;14.30;99.90;;;;;;5033982;28;20040;-78
2022/08/29 04:55:22;;;;;;;13.13;3.05;;;14.30;99.90;;;;;;5030173;28;20134;-78
2022/08/29 04:57:50;;;;;;;7.30;2.80;;;14.30;99.90;;;;;;5050877;28;20036;-78
2022/08/29 05:00:19;;;;;;;7.47;3.33;;;14.30;99.90;;;;;;5030699;28;20045;-77
2022/08/29 05:02:45;;;;;;;6.20;2.97;;;14.30;99.90;;;;;;5032386;28;20485;-78
2022/08/29 05:05:12;;;;;;;8.68;3.15;;;14.30;99.90;;;;;;5029866;28;20064;-78
2022/08/29 05:07:39;;;;;;;8.48;3.10;;;14.30;99.90;;;;;;5034667;28;20063;-78
2022/08/29 05:10:08;;;;;;;5.88;2.80;;;14.20;99.90;;;;;;5044723;28;20557;-78
2022/08/29 05:12:34;;;;;;;8.73;3.08;;;14.20;99.90;;;;;;5031973;28;20034;-78
2022/08/29 05:15:00;;;;;;;5.68;2.65;;;14.20;99.90;;;;;;5030074;28;20029;-78
2022/08/29 05:17:27;;;;;;;7.30;3.72;;;14.40;99.90;;;;;;5028279;28;20048;-78
2022/08/29 05:19:53;;;;;;;7.22;2.97;;;14.30;99.90;;;;;;5033204;28;20037;-78
2022/08/29 05:22:20;;;;;;;7.05;3.53;;;14.40;99.90;;;;;;5033527;28;20395;-78
2022/08/29 05:24:47;;;;;;;8.45;3.40;;;14.40;99.90;;;;;;5028394;28;20033;-78
2022/08/29 05:27:16;;;;;;;10.95;2.72;;;14.60;99.90;;;;;;5033443;28;20655;-78
2022/08/29 05:29:43;;;;;;;7.80;3.20;;;14.70;99.90;;;;;;5048194;28;20041;-77
2022/08/29 05:32:11;;;;;;;6.13;3.35;;;14.70;99.90;;;;;;5045182;28;20121;-78
2022/08/29 05:34:37;;;;;;;7.53;2.42;;;14.80;99.90;;;;;;5040281;28;20048;-77
2022/08/29 05:37:06;;;;;;;6.25;2.80;;;14.90;99.90;;;;;;5050780;28;20059;-77
2022/08/29 05:39:33;;;;;;;9.02;3.38;;;15.00;99.90;;;;;;5040389;28;20037;-78
2022/08/29 05:41:59;;;;;;;5.93;2.53;;;15.00;99.90;;;;;;5027920;28;20072;-78
2022/08/29 05:44:27;;;;;;;7.22;3.30;;;15.10;99.90;;;;;;5041287;28;20488;-78
2022/08/29 05:46:52;;;;;;;6.10;2.42;;;15.20;99.90;;;;;;5033497;28;20268;-78
2022/08/29 05:49:18;;;;;;;6.70;3.22;;;15.20;99.90;;;;;;5029613;28;20132;-77
2022/08/29 05:51:43;;;;;;;5.95;2.80;;;15.30;99.90;;;;;;5010099;28;20045;-79
2022/08/29 05:54:09;;;;;;;7.93;2.72;;;15.30;99.90;;;;;;5027939;28;20431;-77
2022/08/29 05:56:35;;;;;;;6.60;2.90;;;15.40;99.90;;;;;;5028449;28;20041;-84
2022/08/29 05:59:01;;;;;;;8.55;2.95;;;15.50;99.90;;;;;;5017890;28;20418;-84
2022/08/29 06:01:29;;;;;;;8.50;2.72;;;15.50;99.90;;;;;;5018702;28;20045;-83
2022/08/29 06:03:56;;;;;;;12.80;3.00;;;15.60;99.90;;;;;;5034678;28;20043;-84
2022/08/29 06:06:24;;;;;;;9.98;2.78;;;15.70;99.90;;;;;;5052250;28;20476;-84
2022/08/29 06:08:51;;;;;;;15.57;3.42;;;15.70;99.90;;;;;;5034570;28;20045;-83
2022/08/29 06:11:20;;;;;;;6.40;2.85;;;15.80;99.90;;;;;;5034226;28;20041;-84
2022/08/29 06:13:46;;;;;;;13.05;3.78;;;15.80;99.90;;;;;;5017653;28;20039;-84
2022/08/29 06:16:14;;;;;;;9.95;3.15;;;15.80;99.90;;;;;;5017787;28;20167;-84
2022/08/29 06:18:40;;;;;;;7.70;2.85;;;15.90;99.90;;;;;;5026265;28;20041;-84
2022/08/29 06:21:07;;;;;;;10.45;2.63;;;15.90;99.90;;;;;;5013516;28;20041;-83
2022/08/29 06:23:33;;;;;;;5.75;2.88;;;16.00;99.90;;;;;;5021208;28;20710;-83
2022/08/29 06:25:59;;;;;;;7.25;3.17;;;15.90;99.90;;;;;;4997570;28;20133;-82
2022/08/29 06:28:30;;;;;;;6.95;2.28;;;15.90;99.90;;;;;;5046281;28;20116;-82
2022/08/29 06:31:03;;;;;;;5.00;2.65;;;16.10;99.90;;;;;;5033657;28;20045;-82
2022/08/29 06:33:29;;;;;;;7.78;3.45;;;16.00;99.90;;;;;;5034373;28;20044;-82
2022/08/29 06:35:54;;;;;;;9.38;3.78;;;16.10;99.90;;;;;;5017294;28;20040;-82
2022/08/29 06:38:20;;;;;;;7.72;2.70;;;16.10;99.90;;;;;;5034333;28;20039;-81
2022/08/29 06:40:46;;;;;;;8.30;2.85;;;16.20;99.90;;;;;;5033917;28;20045;-82
2022/08/29 06:43:11;;;;;;;12.10;2.95;;;16.30;99.90;;;;;;5017415;28;20040;-81
2022/08/29 06:45:41;;;;;;;14.90;2.95;;;16.30;99.90;;;;;;5033094;28;20124;-83
2022/08/29 06:48:07;;;;;;;13.40;3.20;;;16.50;99.90;;;;;;5036746;28;20494;-81
2022/08/29 06:50:38;;;;;;;7.40;2.47;;;16.50;99.90;;;;;;5021713;28;20048;-82
2022/08/29 06:53:06;;;;;;;7.95;2.70;;;16.60;99.90;;;;;;5032422;28;20055;-82
2022/08/29 06:55:34;;;;;;;10.27;2.42;;;16.80;99.90;;;;;;5037643;28;20040;-83
2022/08/29 06:58:00;;;;;;;8.18;2.53;;;16.90;99.90;;;;;;5020270;28;20578;-81
2022/08/29 07:00:26;;;;;;;8.73;2.55;;;17.00;99.90;;;;;;5021136;28;20063;-83
2022/08/29 07:02:52;;;;;;;5.80;2.22;;;17.20;99.90;;;;;;5037386;28;20036;-82
2022/08/29 07:05:17;;;;;;;7.05;2.50;;;17.30;99.90;;;;;;5037159;28;20083;-83
2022/08/29 07:07:43;;;;;;;7.40;2.38;;;17.30;99.90;;;;;;5033964;28;20061;-83
2022/08/29 07:10:11;;;;;;;6.50;2.65;;;17.40;99.90;;;;;;5020645;28;20041;-82
2022/08/29 07:12:37;;;;;;;5.75;2.50;;;17.50;99.90;;;;;;5035739;28;20104;-82
2022/08/29 07:15:03;;;;;;;9.80;3.40;;;17.70;99.90;;;;;;5036848;28;20131;-82
2022/08/29 07:17:29;;;;;;;9.57;3.10;;;17.60;99.90;;;;;;5020622;28;20531;-83
2022/08/29 07:19:54;;;;;;;5.55;2.60;;;17.70;99.90;;;;;;5017257;28;20108;-83
2022/08/29 07:22:20;;;;;;;5.53;2.58;;;17.80;99.90;;;;;;5035472;28;20081;-83
2022/08/29 07:24:46;;;;;;;6.18;2.58;;;17.90;99.90;;;;;;5017449;28;20495;-82
2022/08/29 07:27:13;;;;;;;9.35;2.75;;;18.20;99.90;;;;;;5036499;28;20029;-83
2022/08/29 07:29:39;;;;;;;6.97;2.60;;;18.40;99.90;;;;;;5022021;28;20037;-84
2022/08/29 07:32:05;;;;;;;7.72;2.60;;;18.50;99.90;;;;;;5019027;28;20400;-84
2022/08/29 07:34:31;;;;;;;7.05;2.63;;;18.60;99.90;;;;;;5002314;28;20043;-84
2022/08/29 07:36:56;;;;;;;10.63;2.50;;;18.60;99.90;;;;;;5033940;28;20479;-83
2022/08/29 07:39:22;;;;;;;4.05;1.80;;;18.60;99.90;;;;;;5013317;28;20112;-83
2022/08/29 07:41:48;;;;;;;7.00;2.45;;;18.60;99.90;;;;;;5021545;28;20029;-83
2022/08/29 07:44:15;;;;;;;8.40;2.95;;;18.70;99.90;;;;;;5036803;28;20103;-84
2022/08/29 07:46:42;;;;;;;6.20;2.20;;;18.80;99.90;;;;;;5018989;28;20051;-83
2022/08/29 07:49:08;;;;;;;8.00;2.10;;;19.00;99.90;;;;;;5019137;28;20067;-84
2022/08/29 07:51:35;;;;;;;8.70;2.10;;;19.00;99.90;;;;;;5018799;28;20044;-84
2022/08/29 07:54:01;;;;;;;5.07;1.80;;;19.10;99.90;;;;;;5019341;28;20483;-84
2022/08/29 07:56:29;;;;;;;5.15;1.90;;;19.10;99.90;;;;;;5019098;28;20071;-84
2022/08/29 07:58:58;;;;;;;5.65;1.75;;;19.10;99.90;;;;;;5019971;28;20030;-84
2022/08/29 08:01:25;;;;;;;6.20;1.70;;;19.20;99.90;;;;;;5036521;28;20128;-84
2022/08/29 08:03:51;;;;;;;6.00;2.22;;;19.20;99.90;;;;;;5021143;28;20391;-84
2022/08/29 08:06:20;;;;;;;4.80;1.70;;;19.30;99.90;;;;;;5036580;28;20055;-84
2022/08/29 08:08:46;;;;;;;8.93;2.30;;;19.30;99.90;;;;;;5019818;28;20036;-84
2022/08/29 08:11:11;;;;;;;7.95;1.95;;;19.50;99.90;;;;;;5019794;28;20083;-84
2022/08/29 08:13:37;;;;;;;5.13;1.80;;;19.50;99.90;;;;;;5019840;28;20068;-84
2022/08/29 08:16:10;;;;;;;9.15;2.10;;;19.70;99.90;;;;;;5036339;28;20502;-84
2022/08/29 08:18:37;;;;;;;4.97;1.92;;;19.80;99.90;;;;;;5019587;28;20044;-84
2022/08/29 08:21:03;;;;;;;4.40;1.80;;;19.90;99.90;;;;;;5052825;28;20045;-85
2022/08/29 08:23:30;;;;;;;7.25;2.05;;;20.00;99.90;;;;;;5035924;28;20407;-84
2022/08/29 08:25:56;;;;;;;5.50;1.98;;;20.10;99.90;;;;;;5019135;28;20095;-85
2022/08/29 08:28:21;;;;;;;7.00;2.00;;;20.30;99.90;;;;;;5035946;28;20435;-84
2022/08/29 08:30:47;;;;;;;4.20;1.67;;;20.40;99.90;;;;;;5036258;28;20044;-83
2022/08/29 08:33:13;;;;;;;8.77;2.15;;;20.50;99.90;;;;;;5035313;28;20045;-83
2022/08/29 08:35:39;;;;;;;5.20;1.90;;;20.70;99.90;;;;;;5019508;28;20061;-83
2022/08/29 08:38:07;;;;;;;9.95;4.05;;;20.90;99.90;;;;;;5035923;28;20123;-83
2022/08/29 08:40:38;;;;;;;10.07;2.05;;;21.10;99.90;;;;;;5035091;28;20429;-83
2022/08/29 08:43:07;;;;;;;7.18;1.85;;;21.20;99.90;;;;;;5035316;28;20490;-83
2022/08/29 08:45:38;;;;;;;6.10;1.95;;;21.10;99.90;;;;;;5034777;28;20065;-84
2022/08/29 08:48:06;;;;;;;6.70;1.92;;;21.10;99.90;;;;;;5051718;28;20045;-83
2022/08/29 08:50:48;;;;;;;7.10;2.03;;;21.10;99.90;;;;;;5035089;28;20045;-84
2022/08/29 08:53:29;;;;;;;9.05;2.25;;;21.00;99.90;;;;;;5035073;28;20037;-84
2022/08/29 08:55:56;;;;;;;5.43;1.90;;;21.00;99.90;;;;;;5034603;28;20041;-84
2022/08/29 08:58:31;;;;;;;8.20;1.90;;;21.00;99.90;;;;;;5017791;28;20029;-84
2022/08/29 09:01:25;;;;;;;6.70;2.15;;;21.00;99.90;;;;;;5026585;28;20041;-83
2022/08/29 09:04:06;;;;;;;7.47;2.22;;;21.00;99.90;;;;;;5005186;28;20059;-83
2022/08/29 09:06:48;;;;;;;9.47;1.90;;;20.90;99.90;;;;;;5033265;28;20045;-83
2022/08/29 09:09:42;;;;;;;6.28;2.42;;;20.90;99.90;;;;;;5033913;28;20557;-84
2022/08/29 09:12:23;;;;;;;8.73;2.10;;;21.00;99.90;;;;;;5018229;28;20103;-83
2022/08/29 09:14:49;;;;;;;7.78;2.42;;;20.90;99.90;;;;;;5017975;28;20086;-84
2022/08/29 09:17:26;;;;;;;9.30;2.13;;;21.00;99.90;;;;;;5034563;28;20080;-84
2022/08/29 09:19:54;;;;;;;4.05;1.67;;;21.10;99.90;;;;;;5034707;28;20041;-83
2022/08/29 09:22:26;;;;;;;5.03;1.88;;;21.00;99.90;;;;;;5034598;28;20437;-84
2022/08/29 09:25:01;;;;;;;6.88;2.40;;;21.00;99.90;;;;;;5034225;28;20045;-84
2022/08/29 09:27:29;;;;;;;11.20;2.22;;;21.00;99.90;;;;;;5034419;28;20051;-83
2022/08/29 09:30:12;;;;;;;8.05;2.22;;;21.20;99.90;;;;;;5034398;28;20077;-84
2022/08/29 09:33:00;;;;;;;9.30;2.22;;;21.40;99.90;;;;;;5034197;28;20128;-84
2022/08/29 09:35:50;;;;;;;5.32;2.03;;;21.60;99.90;;;;;;5017657;28;20128;-84
2022/08/29 09:38:16;;;;;;;5.10;2.10;;;21.90;99.90;;;;;;5017914;28;20037;-83
2022/08/29 09:40:50;;;;;;;7.18;1.98;;;21.90;99.90;;;;;;5018040;28;20102;-82
2022/08/29 09:43:27;;;;;;;6.68;3.03;;;22.10;99.90;;;;;;5033976;28;20094;-84
2022/08/29 09:46:23;;;;;;;4.95;1.58;;;22.30;99.90;;;;;;5033899;28;20076;-84
2022/08/29 09:48:52;;;;;;;5.50;2.00;;;22.50;99.90;;;;;;5034336;28;20517;-83
2022/08/29 09:51:27;;;;;;;7.72;2.13;;;22.80;99.90;;;;;;5034133;28;20513;-84
2022/08/29 09:54:10;;;;;;;6.75;2.03;;;23.40;99.90;;;;;;5034347;28;20175;-84
2022/08/29 09:56:38;;;;;;;8.02;2.05;;;23.80;99.90;;;;;;5033627;28;20036;-83
2022/08/29 09:59:12;;;;;;;6.30;2.05;;;24.00;99.90;;;;;;5033866;28;20047;-83
2022/08/29 10:01:38;;;;;;;5.85;1.77;;;24.30;99.90;;;;;;5033810;28;20040;-85
2022/08/29 10:04:05;;;;;;;3.70;1.45;;;24.90;99.90;;;;;;5033438;28;20051;-84
2022/08/29 10:06:40;;;;;;;8.38;1.90;;;25.20;99.90;;;;;;5033326;28;20087;-84
2022/08/29 10:09:10;;;;;;;7.57;2.08;;;25.70;99.90;;;;;;5050378;28;20095;-84
2022/08/29 10:11:52;;;;;;;5.07;2.05;;;25.90;99.90;;;;;;5033761;28;20439;-85
2022/08/29 10:14:30;;;;;;;4.43;1.83;;;25.90;97.80;;;;;;5033401;28;20438;-85
2022/08/29 10:18:19;;;;;;;4.28;1.60;;;25.30;99.20;;;;;;5033401;28;20068;-84
2022/08/29 10:19:46;;;;;;;9.68;2.65;;;24.60;99.90;;;;;;5033779;28;20128;-84
2022/08/29 10:22:33;;;;;;;6.88;1.73;;;24.20;99.90;;;;;;5037651;28;20056;-84
2022/08/29 10:25:09;;;;;;;6.28;1.83;;;24.30;99.90;;;;;;5044303;28;20021;-82
2022/08/29 10:27:37;;;;;;;5.25;1.95;;;24.40;99.90;;;;;;5056926;28;20028;-85
2022/08/29 10:30:37;;;;;;;5.50;1.90;;;24.60;99.90;;;;;;5039247;28;20052;-84
2022/08/29 10:33:10;;;;;;;5.70;1.95;;;24.90;99.20;;;;;;5041581;28;20040;-81
2022/08/29 10:36:07;;;;;;;7.25;1.83;;;25.30;99.50;;;;;;5049307;28;20045;-85
2022/08/29 10:38:58;;;;;;;5.63;1.80;;;25.40;96.10;;;;;;5033433;28;20076;-84
2022/08/29 10:41:39;;;;;;;6.88;2.03;;;24.90;98.20;;;;;;4998401;28;20059;-85
2022/08/29 10:44:27;;;;;;;9.40;2.50;;;24.60;98.60;;;;;;5033442;28;20080;-77
2022/08/29 10:47:00;;;;;;;3.22;1.95;;;24.20;99.90;;;;;;5033129;28;20056;-78
2022/08/29 10:50:00;;;;;;;4.22;2.03;;;23.80;99.90;;;;;;5033371;28;20045;-78
2022/08/29 10:53:01;;;;;;;8.55;1.92;;;23.50;99.90;;;;;;5016927;28;20077;-77
2022/08/29 10:56:00;;;;;;;4.68;1.65;;;23.10;99.90;;;;;;5028720;28;20049;-78
2022/08/29 10:58:59;;;;;;;9.32;2.05;;;23.00;99.90;;;;;;5000751;28;20052;-77
2022/08/29 11:01:42;;;;;;;6.50;1.98;;;22.90;99.90;;;;;;5032924;28;20044;-73
2022/08/29 11:04:21;;;;;;;5.28;1.70;;;22.80;99.90;;;;;;5033527;28;20469;-73
2022/08/29 11:07:21;;;;;;;4.30;2.03;;;22.80;99.90;;;;;;5032605;28;20057;-73
2022/08/29 11:10:10;;;;;;;7.22;2.50;;;22.80;99.90;;;;;;5033035;28;20068;-73
2022/08/29 11:12:44;;;;;;;8.05;2.13;;;22.80;99.90;;;;;;5050733;28;20055;-73
2022/08/29 11:15:37;;;;;;;8.65;1.85;;;23.20;99.90;;;;;;5032889;28;20048;-72
2022/08/29 11:18:21;;;;;;;7.28;2.15;;;23.70;99.90;;;;;;5032773;28;20423;-73
2022/08/29 11:20:59;;;;;;;3.85;1.80;;;24.40;99.90;;;;;;5050797;28;20039;-73
2022/08/29 11:23:39;;;;;;;7.03;2.50;;;24.70;99.90;;;;;;5050748;28;20052;-73
2022/08/29 11:26:23;;;;;;;7.50;2.28;;;24.50;99.90;;;;;;5032516;28;20044;-72
2022/08/29 11:29:16;;;;;;;4.55;2.10;;;24.40;99.90;;;;;;5050905;28;20051;-73
2022/08/29 11:31:52;;;;;;;8.02;2.22;;;24.10;99.90;;;;;;5050519;28;20045;-72
2022/08/29 11:34:26;;;;;;;8.35;2.53;;;23.80;99.90;;;;;;5036076;28;20119;-72
2022/08/29 11:36:58;;;;;;;6.38;2.45;;;23.50;99.90;;;;;;5036176;28;20079;-72
2022/08/29 11:40:02;;;;;;;12.00;2.80;;;23.30;99.90;;;;;;5036397;28;20048;-72
2022/08/29 11:42:32;;;;;;;7.32;2.30;;;23.00;99.90;;;;;;4957219;28;20144;-72
2022/08/29 11:45:00;;;;;;;7.15;2.63;;;22.80;99.90;;;;;;5040973;28;20095;-72
2022/08/29 11:47:34;;;;;;;5.70;2.72;;;22.70;99.90;;;;;;5036291;28;20041;-72
2022/08/29 11:50:16;;;;;;;8.43;2.47;;;22.60;99.90;;;;;;5054104;28;20040;-74
2022/08/29 11:52:57;;;;;;;6.45;2.05;;;22.50;99.90;;;;;;5054217;28;20110;-73
2022/08/29 11:55:30;;;;;;;13.27;3.00;;;22.40;99.90;;;;;;5036077;28;20052;-73
2022/08/29 11:58:09;;;;;;;8.32;2.47;;;22.40;99.90;;;;;;5036009;28;20043;-72
2022/08/29 12:00:37;;;;;;;5.90;2.60;;;22.40;99.90;;;;;;5019695;28;20041;-73
2022/08/29 12:03:23;;;;;;;12.00;3.35;;;22.40;99.90;;;;;;5036152;28;20051;-73
2022/08/29 12:05:58;;;;;;;8.20;2.53;;;22.40;99.90;;;;;;5035493;28;20044;-73
2022/08/29 12:08:38;;;;;;;5.32;2.20;;;22.50;99.90;;;;;;5035875;28;20056;-72
2022/08/29 12:11:04;;;;;;;8.77;3.08;;;22.50;99.90;;;;;;5035754;28;20064;-72
2022/08/29 12:13:45;;;;;;;12.05;3.42;;;22.40;99.90;;;;;;5035990;28;20495;-72
2022/08/29 12:16:35;;;;;;;9.23;3.50;;;22.50;99.90;;;;;;5035649;28;20451;-72
2022/08/29 12:19:01;;;;;;;7.20;2.78;;;22.60;99.90;;;;;;5025035;28;20091;-73
2022/08/29 12:21:35;;;;;;;10.18;3.33;;;22.60;99.90;;;;;;5035669;28;20072;-73
2022/08/29 12:24:24;;;;;;;8.43;2.63;;;22.60;99.90;;;;;;5035557;28;20049;-73
2022/08/29 12:26:51;;;;;;;8.88;3.03;;;22.60;99.90;;;;;;5053172;28;20041;-78
2022/08/29 12:29:23;;;;;;;8.73;2.85;;;22.60;99.90;;;;;;5035580;28;20032;-77
2022/08/29 12:32:16;;;;;;;9.20;2.88;;;22.60;99.90;;;;;;5035446;28;20072;-78
2022/08/29 12:35:11;;;;;;;7.15;2.92;;;22.70;99.90;;;;;;5019184;28;20471;-79
2022/08/29 12:38:02;;;;;;;9.63;2.92;;;22.80;99.90;;;;;;5035577;28;20120;-78
2022/08/29 12:41:05;;;;;;;7.70;2.95;;;22.90;99.90;;;;;;5035729;28;20392;-78
2022/08/29 12:43:41;;;;;;;10.68;3.38;;;23.00;99.90;;;;;;4991728;28;20140;-79
2022/08/29 12:46:28;;;;;;;10.10;2.70;;;23.00;99.90;;;;;;5035086;28;20147;-78
2022/08/29 12:49:04;;;;;;;4.47;2.05;;;23.00;99.90;;;;;;5018789;28;20053;-79
2022/08/29 12:51:39;;;;;;;8.30;2.90;;;22.90;99.90;;;;;;5030926;28;20048;-79
2022/08/29 12:54:06;;;;;;;5.05;3.00;;;22.70;99.90;;;;;;5033583;28;20041;-79
2022/08/29 12:56:32;;;;;;;8.15;3.42;;;22.70;99.90;;;;;;5036777;28;20594;-79
2022/08/29 12:59:01;;;;;;;7.78;2.63;;;22.70;99.90;;;;;;5034955;28;20049;-78
2022/08/29 13:01:38;;;;;;;9.57;2.90;;;22.70;99.90;;;;;;5034850;28;20041;-78
2022/08/29 13:04:10;;;;;;;6.85;2.83;;;22.70;99.90;;;;;;5035156;28;20052;-78
2022/08/29 13:06:36;;;;;;;;;;;22.70;99.90;;;;;;5035406;28;20586;-77
2022/08/29 13:09:04;;;;;;;9.75;3.00;;;22.70;99.90;;;;;;5018805;28;19923;-78